In Rescue
 
Open Full Screen Window  High Contrast Mode
Wind Gusting 25 knots
13
May 25, 2022 8:33 PM CDT
Present Weather: Mist
Weather Information
Wind Direction
  050 °
Wind Speed
  13 kt (15 mph)
Wind Gust
  25 kt (29 mph)
Altimeter
29.93 in
Visibility
5 SM
Temperature
07° C
45° F
Dewpoint
06° C
43° F
Humidity
93%
1hr Rain Fall
00.00 in.
24hr Rain Fall
00.29 in.
Sky Condition
Overcast @ 400 ft
LIFR

METAR KTWM 260133Z AUTO 05013G25KT 5SM BR OVC004 07/06 A2993 RMK AO2

FAA Disclaimer: The data displayed is for advisory purposes only and is not to be used for flight planning or operations.